sensor_id;sensor_type;location;lat;lon;timestamp;P1;durP1;ratioP1;P2;durP2;ratioP2
74309;SDS011;62722;51.142;17.052;2023-04-23T00:00:33;36.90;;;19.98;;
74309;SDS011;62722;51.142;17.052;2023-04-23T00:03:21;37.58;;;19.35;;
74309;SDS011;62722;51.142;17.052;2023-04-23T00:05:51;32.75;;;18.92;;
74309;SDS011;62722;51.142;17.052;2023-04-23T00:08:20;34.17;;;18.00;;
74309;SDS011;62722;51.142;17.052;2023-04-23T00:10:48;32.90;;;18.10;;
74309;SDS011;62722;51.142;17.052;2023-04-23T00:13:16;34.75;;;18.10;;
74309;SDS011;62722;51.142;17.052;2023-04-23T00:15:44;36.38;;;18.70;;
74309;SDS011;62722;51.142;17.052;2023-04-23T00:18:12;29.15;;;16.70;;
74309;SDS011;62722;51.142;17.052;2023-04-23T00:20:41;32.97;;;18.13;;
74309;SDS011;62722;51.142;17.052;2023-04-23T00:23:10;28.77;;;16.95;;
74309;SDS011;62722;51.142;17.052;2023-04-23T00:25:37;32.30;;;17.27;;
74309;SDS011;62722;51.142;17.052;2023-04-23T00:28:05;30.17;;;17.15;;
74309;SDS011;62722;51.142;17.052;2023-04-23T00:30:32;28.67;;;16.63;;
74309;SDS011;62722;51.142;17.052;2023-04-23T00:32:59;33.55;;;16.83;;
74309;SDS011;62722;51.142;17.052;2023-04-23T00:35:27;32.90;;;16.95;;
74309;SDS011;62722;51.142;17.052;2023-04-23T00:37:54;29.23;;;16.80;;
74309;SDS011;62722;51.142;17.052;2023-04-23T00:40:23;34.85;;;17.25;;
74309;SDS011;62722;51.142;17.052;2023-04-23T00:42:50;32.65;;;17.55;;
74309;SDS011;62722;51.142;17.052;2023-04-23T00:45:18;32.92;;;18.35;;
74309;SDS011;62722;51.142;17.052;2023-04-23T00:47:46;36.90;;;20.13;;
74309;SDS011;62722;51.142;17.052;2023-04-23T00:50:15;33.30;;;17.08;;
74309;SDS011;62722;51.142;17.052;2023-04-23T00:52:42;32.35;;;17.92;;
74309;SDS011;62722;51.142;17.052;2023-04-23T00:55:09;33.70;;;18.08;;
74309;SDS011;62722;51.142;17.052;2023-04-23T00:57:38;35.58;;;17.85;;
74309;SDS011;62722;51.142;17.052;2023-04-23T01:00:07;29.52;;;16.20;;
74309;SDS011;62722;51.142;17.052;2023-04-23T01:02:37;32.03;;;16.77;;
74309;SDS011;62722;51.142;17.052;2023-04-23T01:05:04;33.13;;;16.80;;
74309;SDS011;62722;51.142;17.052;2023-04-23T01:07:35;28.58;;;17.13;;
74309;SDS011;62722;51.142;17.052;2023-04-23T01:10:03;32.90;;;17.67;;
74309;SDS011;62722;51.142;17.052;2023-04-23T01:12:31;33.85;;;18.10;;
74309;SDS011;62722;51.142;17.052;2023-04-23T01:15:00;35.97;;;17.10;;
74309;SDS011;62722;51.142;17.052;2023-04-23T01:17:28;32.13;;;16.65;;
74309;SDS011;62722;51.142;17.052;2023-04-23T01:19:56;33.20;;;17.27;;
74309;SDS011;62722;51.142;17.052;2023-04-23T01:22:25;33.78;;;18.30;;
74309;SDS011;62722;51.142;17.052;2023-04-23T01:24:53;39.10;;;18.55;;
74309;SDS011;62722;51.142;17.052;2023-04-23T01:27:21;28.83;;;16.05;;
74309;SDS011;62722;51.142;17.052;2023-04-23T01:29:49;29.63;;;15.90;;
74309;SDS011;62722;51.142;17.052;2023-04-23T01:32:17;33.95;;;17.40;;
74309;SDS011;62722;51.142;17.052;2023-04-23T01:34:45;28.23;;;16.17;;
74309;SDS011;62722;51.142;17.052;2023-04-23T01:37:14;30.75;;;16.30;;
74309;SDS011;62722;51.142;17.052;2023-04-23T01:39:43;30.52;;;16.83;;
74309;SDS011;62722;51.142;17.052;2023-04-23T01:42:11;35.38;;;18.08;;
74309;SDS011;62722;51.142;17.052;2023-04-23T01:44:38;33.72;;;16.83;;
74309;SDS011;62722;51.142;17.052;2023-04-23T01:47:06;30.48;;;16.30;;
74309;SDS011;62722;51.142;17.052;2023-04-23T01:49:33;31.17;;;16.10;;
74309;SDS011;62722;51.142;17.052;2023-04-23T01:52:00;31.08;;;16.17;;
74309;SDS011;62722;51.142;17.052;2023-04-23T01:54:28;31.95;;;15.75;;
74309;SDS011;62722;51.142;17.052;2023-04-23T01:56:57;33.47;;;17.13;;
74309;SDS011;62722;51.142;17.052;2023-04-23T01:59:24;34.55;;;16.83;;
74309;SDS011;62722;51.142;17.052;2023-04-23T02:01:52;33.40;;;17.20;;
74309;SDS011;62722;51.142;17.052;2023-04-23T02:04:19;35.15;;;18.05;;
74309;SDS011;62722;51.142;17.052;2023-04-23T02:06:48;28.95;;;16.05;;
74309;SDS011;62722;51.142;17.052;2023-04-23T02:09:16;31.15;;;15.98;;
74309;SDS011;62722;51.142;17.052;2023-04-23T02:11:44;32.15;;;17.17;;
74309;SDS011;62722;51.142;17.052;2023-04-23T02:14:12;30.80;;;15.63;;
74309;SDS011;62722;51.142;17.052;2023-04-23T02:16:40;27.83;;;16.33;;
74309;SDS011;62722;51.142;17.052;2023-04-23T02:19:07;26.70;;;15.20;;
74309;SDS011;62722;51.142;17.052;2023-04-23T02:21:35;27.25;;;15.27;;
74309;SDS011;62722;51.142;17.052;2023-04-23T02:24:02;31.52;;;15.88;;
74309;SDS011;62722;51.142;17.052;2023-04-23T02:26:30;28.35;;;15.73;;
74309;SDS011;62722;51.142;17.052;2023-04-23T02:28:57;30.83;;;16.00;;
74309;SDS011;62722;51.142;17.052;2023-04-23T02:31:26;31.35;;;15.98;;
74309;SDS011;62722;51.142;17.052;2023-04-23T02:33:54;32.33;;;15.85;;
74309;SDS011;62722;51.142;17.052;2023-04-23T02:36:21;27.92;;;15.35;;
74309;SDS011;62722;51.142;17.052;2023-04-23T02:38:48;31.90;;;14.93;;
74309;SDS011;62722;51.142;17.052;2023-04-23T02:41:16;27.98;;;15.50;;
74309;SDS011;62722;51.142;17.052;2023-04-23T02:43:43;26.70;;;14.13;;
74309;SDS011;62722;51.142;17.052;2023-04-23T02:46:10;27.45;;;14.35;;
74309;SDS011;62722;51.142;17.052;2023-04-23T02:48:39;24.73;;;13.90;;
74309;SDS011;62722;51.142;17.052;2023-04-23T02:51:08;24.55;;;13.60;;
74309;SDS011;62722;51.142;17.052;2023-04-23T02:53:37;27.77;;;13.88;;
74309;SDS011;62722;51.142;17.052;2023-04-23T02:56:07;25.15;;;13.85;;
74309;SDS011;62722;51.142;17.052;2023-04-23T02:58:34;26.23;;;14.88;;
74309;SDS011;62722;51.142;17.052;2023-04-23T03:01:02;30.67;;;14.90;;
74309;SDS011;62722;51.142;17.052;2023-04-23T03:03:29;28.58;;;14.40;;
74309;SDS011;62722;51.142;17.052;2023-04-23T03:05:59;24.27;;;13.77;;
74309;SDS011;62722;51.142;17.052;2023-04-23T03:08:27;25.38;;;13.77;;
74309;SDS011;62722;51.142;17.052;2023-04-23T03:10:55;25.83;;;13.52;;
74309;SDS011;62722;51.142;17.052;2023-04-23T03:13:23;24.55;;;13.48;;
74309;SDS011;62722;51.142;17.052;2023-04-23T03:15:51;24.67;;;13.85;;
74309;SDS011;62722;51.142;17.052;2023-04-23T03:18:19;27.00;;;14.57;;
74309;SDS011;62722;51.142;17.052;2023-04-23T03:20:47;25.42;;;14.52;;
74309;SDS011;62722;51.142;17.052;2023-04-23T03:23:15;24.27;;;13.55;;
74309;SDS011;62722;51.142;17.052;2023-04-23T03:25:43;22.52;;;13.00;;
74309;SDS011;62722;51.142;17.052;2023-04-23T03:28:10;29.60;;;13.88;;
74309;SDS011;62722;51.142;17.052;2023-04-23T03:30:38;28.02;;;13.63;;
74309;SDS011;62722;51.142;17.052;2023-04-23T03:33:05;28.17;;;13.93;;
74309;SDS011;62722;51.142;17.052;2023-04-23T03:35:33;25.05;;;12.55;;
74309;SDS011;62722;51.142;17.052;2023-04-23T03:38:00;25.27;;;13.05;;
74309;SDS011;62722;51.142;17.052;2023-04-23T03:40:29;25.23;;;13.48;;
74309;SDS011;62722;51.142;17.052;2023-04-23T03:42:56;25.70;;;12.57;;
74309;SDS011;62722;51.142;17.052;2023-04-23T03:45:24;27.52;;;12.70;;
74309;SDS011;62722;51.142;17.052;2023-04-23T03:47:51;26.75;;;13.40;;
74309;SDS011;62722;51.142;17.052;2023-04-23T03:50:19;26.52;;;13.20;;
74309;SDS011;62722;51.142;17.052;2023-04-23T03:52:46;23.63;;;12.88;;
74309;SDS011;62722;51.142;17.052;2023-04-23T03:55:14;22.58;;;12.88;;
74309;SDS011;62722;51.142;17.052;2023-04-23T03:57:42;24.15;;;12.57;;
74309;SDS011;62722;51.142;17.052;2023-04-23T04:00:10;24.55;;;14.27;;
74309;SDS011;62722;51.142;17.052;2023-04-23T04:02:39;22.02;;;12.40;;
74309;SDS011;62722;51.142;17.052;2023-04-23T04:05:06;23.45;;;12.60;;
74309;SDS011;62722;51.142;17.052;2023-04-23T04:07:35;27.50;;;14.52;;
74309;SDS011;62722;51.142;17.052;2023-04-23T04:10:03;24.88;;;13.40;;
74309;SDS011;62722;51.142;17.052;2023-04-23T04:12:31;25.75;;;13.20;;
74309;SDS011;62722;51.142;17.052;2023-04-23T04:15:00;25.73;;;13.40;;
74309;SDS011;62722;51.142;17.052;2023-04-23T04:17:28;27.05;;;12.82;;
74309;SDS011;62722;51.142;17.052;2023-04-23T04:19:56;23.67;;;12.57;;
74309;SDS011;62722;51.142;17.052;2023-04-23T04:22:23;25.83;;;14.18;;
74309;SDS011;62722;51.142;17.052;2023-04-23T04:24:50;24.50;;;12.50;;
74309;SDS011;62722;51.142;17.052;2023-04-23T04:27:18;24.83;;;12.68;;
74309;SDS011;62722;51.142;17.052;2023-04-23T04:29:46;21.42;;;12.57;;
74309;SDS011;62722;51.142;17.052;2023-04-23T04:32:14;20.77;;;13.25;;
74309;SDS011;62722;51.142;17.052;2023-04-23T04:34:42;22.38;;;12.10;;
74309;SDS011;62722;51.142;17.052;2023-04-23T04:37:09;23.13;;;11.90;;
74309;SDS011;62722;51.142;17.052;2023-04-23T04:39:37;23.00;;;12.18;;
74309;SDS011;62722;51.142;17.052;2023-04-23T04:42:05;21.98;;;11.82;;
74309;SDS011;62722;51.142;17.052;2023-04-23T04:44:32;22.10;;;12.57;;
74309;SDS011;62722;51.142;17.052;2023-04-23T04:47:01;25.13;;;12.60;;
74309;SDS011;62722;51.142;17.052;2023-04-23T04:49:30;21.90;;;11.27;;
74309;SDS011;62722;51.142;17.052;2023-04-23T04:51:57;22.73;;;11.65;;
74309;SDS011;62722;51.142;17.052;2023-04-23T04:54:25;22.85;;;12.02;;
74309;SDS011;62722;51.142;17.052;2023-04-23T04:56:52;25.02;;;11.95;;
74309;SDS011;62722;51.142;17.052;2023-04-23T04:59:20;19.67;;;11.25;;
74309;SDS011;62722;51.142;17.052;2023-04-23T05:01:47;19.27;;;11.52;;
74309;SDS011;62722;51.142;17.052;2023-04-23T05:04:15;18.77;;;10.88;;
74309;SDS011;62722;51.142;17.052;2023-04-23T05:06:43;20.92;;;12.02;;
74309;SDS011;62722;51.142;17.052;2023-04-23T05:09:11;18.83;;;10.95;;
74309;SDS011;62722;51.142;17.052;2023-04-23T05:11:38;19.20;;;11.20;;
74309;SDS011;62722;51.142;17.052;2023-04-23T05:14:06;20.90;;;11.75;;
74309;SDS011;62722;51.142;17.052;2023-04-23T05:16:33;21.67;;;11.20;;
74309;SDS011;62722;51.142;17.052;2023-04-23T05:19:01;23.05;;;11.48;;
74309;SDS011;62722;51.142;17.052;2023-04-23T05:21:28;18.05;;;10.43;;
74309;SDS011;62722;51.142;17.052;2023-04-23T05:23:57;18.98;;;10.93;;
74309;SDS011;62722;51.142;17.052;2023-04-23T05:26:25;19.25;;;11.10;;
74309;SDS011;62722;51.142;17.052;2023-04-23T05:28:52;18.10;;;9.77;;
74309;SDS011;62722;51.142;17.052;2023-04-23T05:31:19;19.13;;;10.23;;
74309;SDS011;62722;51.142;17.052;2023-04-23T05:33:47;18.02;;;10.45;;
74309;SDS011;62722;51.142;17.052;2023-04-23T05:36:14;18.42;;;10.55;;
74309;SDS011;62722;51.142;17.052;2023-04-23T05:38:42;18.92;;;10.30;;
74309;SDS011;62722;51.142;17.052;2023-04-23T05:41:10;17.38;;;10.25;;
74309;SDS011;62722;51.142;17.052;2023-04-23T05:43:38;17.63;;;9.95;;
74309;SDS011;62722;51.142;17.052;2023-04-23T05:46:05;18.08;;;10.05;;
74309;SDS011;62722;51.142;17.052;2023-04-23T05:48:33;17.63;;;9.77;;
74309;SDS011;62722;51.142;17.052;2023-04-23T05:51:00;18.13;;;9.73;;
74309;SDS011;62722;51.142;17.052;2023-04-23T05:53:27;17.63;;;8.63;;
74309;SDS011;62722;51.142;17.052;2023-04-23T05:55:55;17.25;;;9.38;;
74309;SDS011;62722;51.142;17.052;2023-04-23T05:58:23;18.67;;;9.43;;
74309;SDS011;62722;51.142;17.052;2023-04-23T06:00:51;15.73;;;9.15;;
74309;SDS011;62722;51.142;17.052;2023-04-23T06:03:18;18.50;;;8.27;;
74309;SDS011;62722;51.142;17.052;2023-04-23T06:05:46;16.50;;;9.23;;
74309;SDS011;62722;51.142;17.052;2023-04-23T06:08:13;15.13;;;9.05;;
74309;SDS011;62722;51.142;17.052;2023-04-23T06:10:41;15.93;;;8.93;;
74309;SDS011;62722;51.142;17.052;2023-04-23T06:13:08;13.98;;;8.68;;
74309;SDS011;62722;51.142;17.052;2023-04-23T06:15:37;14.85;;;8.82;;
74309;SDS011;62722;51.142;17.052;2023-04-23T06:18:04;13.80;;;8.63;;
74309;SDS011;62722;51.142;17.052;2023-04-23T06:20:32;14.10;;;8.90;;
74309;SDS011;62722;51.142;17.052;2023-04-23T06:22:59;15.95;;;8.30;;
74309;SDS011;62722;51.142;17.052;2023-04-23T06:25:27;13.98;;;7.75;;
74309;SDS011;62722;51.142;17.052;2023-04-23T06:27:54;13.25;;;7.57;;
74309;SDS011;62722;51.142;17.052;2023-04-23T06:30:22;10.80;;;6.80;;
74309;SDS011;62722;51.142;17.052;2023-04-23T06:32:51;14.38;;;7.47;;
74309;SDS011;62722;51.142;17.052;2023-04-23T06:35:18;13.70;;;7.05;;
74309;SDS011;62722;51.142;17.052;2023-04-23T06:37:46;12.30;;;7.18;;
74309;SDS011;62722;51.142;17.052;2023-04-23T06:40:13;16.00;;;7.78;;
74309;SDS011;62722;51.142;17.052;2023-04-23T06:42:41;13.10;;;7.70;;
74309;SDS011;62722;51.142;17.052;2023-04-23T06:45:10;11.55;;;7.20;;
74309;SDS011;62722;51.142;17.052;2023-04-23T06:47:38;14.65;;;7.82;;
74309;SDS011;62722;51.142;17.052;2023-04-23T06:50:07;11.48;;;6.85;;
74309;SDS011;62722;51.142;17.052;2023-04-23T06:52:34;13.00;;;7.65;;
74309;SDS011;62722;51.142;17.052;2023-04-23T06:55:02;16.23;;;8.13;;
74309;SDS011;62722;51.142;17.052;2023-04-23T06:57:30;15.77;;;7.68;;
74309;SDS011;62722;51.142;17.052;2023-04-23T06:59:57;15.95;;;9.02;;
74309;SDS011;62722;51.142;17.052;2023-04-23T07:02:25;14.93;;;8.05;;
74309;SDS011;62722;51.142;17.052;2023-04-23T07:04:52;19.15;;;8.00;;
74309;SDS011;62722;51.142;17.052;2023-04-23T07:07:21;14.20;;;8.63;;
74309;SDS011;62722;51.142;17.052;2023-04-23T07:09:48;11.95;;;7.65;;
74309;SDS011;62722;51.142;17.052;2023-04-23T07:12:17;10.00;;;7.03;;
74309;SDS011;62722;51.142;17.052;2023-04-23T07:14:44;12.20;;;7.15;;
74309;SDS011;62722;51.142;17.052;2023-04-23T07:17:12;12.85;;;7.20;;
74309;SDS011;62722;51.142;17.052;2023-04-23T07:19:39;12.68;;;6.70;;
74309;SDS011;62722;51.142;17.052;2023-04-23T07:22:06;12.18;;;6.88;;
74309;SDS011;62722;51.142;17.052;2023-04-23T07:24:35;11.35;;;6.78;;
74309;SDS011;62722;51.142;17.052;2023-04-23T07:27:03;10.20;;;5.90;;
74309;SDS011;62722;51.142;17.052;2023-04-23T07:29:30;10.00;;;6.10;;
74309;SDS011;62722;51.142;17.052;2023-04-23T07:31:58;11.73;;;6.25;;
74309;SDS011;62722;51.142;17.052;2023-04-23T07:34:25;9.25;;;6.13;;
74309;SDS011;62722;51.142;17.052;2023-04-23T07:36:52;11.55;;;6.00;;
74309;SDS011;62722;51.142;17.052;2023-04-23T07:39:20;10.90;;;6.20;;
74309;SDS011;62722;51.142;17.052;2023-04-23T07:41:49;10.88;;;6.50;;
74309;SDS011;62722;51.142;17.052;2023-04-23T07:44:16;13.80;;;5.97;;
74309;SDS011;62722;51.142;17.052;2023-04-23T07:46:44;10.18;;;6.03;;
74309;SDS011;62722;51.142;17.052;2023-04-23T07:49:11;9.40;;;5.95;;
74309;SDS011;62722;51.142;17.052;2023-04-23T07:51:39;12.18;;;6.18;;
74309;SDS011;62722;51.142;17.052;2023-04-23T07:54:06;8.93;;;5.45;;
74309;SDS011;62722;51.142;17.052;2023-04-23T07:56:34;7.13;;;4.70;;
74309;SDS011;62722;51.142;17.052;2023-04-23T07:59:03;7.97;;;5.15;;
74309;SDS011;62722;51.142;17.052;2023-04-23T08:01:31;9.40;;;5.20;;
74309;SDS011;62722;51.142;17.052;2023-04-23T08:03:58;8.60;;;5.32;;
74309;SDS011;62722;51.142;17.052;2023-04-23T08:06:27;10.38;;;6.22;;
74309;SDS011;62722;51.142;17.052;2023-04-23T08:08:55;11.25;;;5.95;;
74309;SDS011;62722;51.142;17.052;2023-04-23T08:11:23;8.48;;;5.63;;
74309;SDS011;62722;51.142;17.052;2023-04-23T08:13:50;8.10;;;5.50;;
74309;SDS011;62722;51.142;17.052;2023-04-23T08:16:19;10.43;;;5.93;;
74309;SDS011;62722;51.142;17.052;2023-04-23T08:18:47;8.52;;;5.38;;
74309;SDS011;62722;51.142;17.052;2023-04-23T08:21:14;7.40;;;5.22;;
74309;SDS011;62722;51.142;17.052;2023-04-23T08:23:41;7.97;;;5.30;;
74309;SDS011;62722;51.142;17.052;2023-04-23T08:26:09;6.88;;;4.65;;
74309;SDS011;62722;51.142;17.052;2023-04-23T08:28:36;9.23;;;4.97;;
74309;SDS011;62722;51.142;17.052;2023-04-23T08:31:04;9.52;;;5.28;;
74309;SDS011;62722;51.142;17.052;2023-04-23T08:33:32;8.52;;;5.30;;
74309;SDS011;62722;51.142;17.052;2023-04-23T08:36:00;7.57;;;4.72;;
74309;SDS011;62722;51.142;17.052;2023-04-23T08:38:27;10.32;;;5.60;;
74309;SDS011;62722;51.142;17.052;2023-04-23T08:40:55;10.98;;;5.07;;
74309;SDS011;62722;51.142;17.052;2023-04-23T08:43:25;7.40;;;4.57;;
74309;SDS011;62722;51.142;17.052;2023-04-23T08:45:56;9.38;;;4.47;;
74309;SDS011;62722;51.142;17.052;2023-04-23T08:48:28;8.43;;;4.95;;
74309;SDS011;62722;51.142;17.052;2023-04-23T08:50:57;8.45;;;4.93;;
74309;SDS011;62722;51.142;17.052;2023-04-23T08:53:27;9.55;;;5.28;;
74309;SDS011;62722;51.142;17.052;2023-04-23T08:55:57;9.15;;;4.55;;
74309;SDS011;62722;51.142;17.052;2023-04-23T08:58:25;6.65;;;4.20;;
74309;SDS011;62722;51.142;17.052;2023-04-23T09:00:53;9.77;;;4.40;;
74309;SDS011;62722;51.142;17.052;2023-04-23T09:03:22;6.90;;;4.53;;
74309;SDS011;62722;51.142;17.052;2023-04-23T09:05:51;7.47;;;4.53;;
74309;SDS011;62722;51.142;17.052;2023-04-23T09:08:20;7.00;;;4.50;;
74309;SDS011;62722;51.142;17.052;2023-04-23T09:10:47;8.90;;;4.57;;
74309;SDS011;62722;51.142;17.052;2023-04-23T09:13:16;6.53;;;4.25;;
74309;SDS011;62722;51.142;17.052;2023-04-23T09:15:43;10.70;;;4.70;;
74309;SDS011;62722;51.142;17.052;2023-04-23T09:18:11;7.00;;;4.22;;
74309;SDS011;62722;51.142;17.052;2023-04-23T09:20:38;8.25;;;4.50;;
74309;SDS011;62722;51.142;17.052;2023-04-23T09:23:06;7.10;;;4.07;;
74309;SDS011;62722;51.142;17.052;2023-04-23T09:25:35;6.25;;;4.45;;
74309;SDS011;62722;51.142;17.052;2023-04-23T09:28:02;9.45;;;4.40;;
74309;SDS011;62722;51.142;17.052;2023-04-23T09:30:37;7.25;;;4.40;;
74309;SDS011;62722;51.142;17.052;2023-04-23T09:33:06;5.35;;;3.85;;
74309;SDS011;62722;51.142;17.052;2023-04-23T09:35:37;7.05;;;3.75;;
74309;SDS011;62722;51.142;17.052;2023-04-23T09:38:06;5.80;;;3.75;;
74309;SDS011;62722;51.142;17.052;2023-04-23T09:40:36;6.13;;;3.85;;
74309;SDS011;62722;51.142;17.052;2023-04-23T09:43:04;4.93;;;3.83;;
74309;SDS011;62722;51.142;17.052;2023-04-23T09:45:32;7.72;;;3.88;;
74309;SDS011;62722;51.142;17.052;2023-04-23T09:48:00;10.32;;;4.18;;
74309;SDS011;62722;51.142;17.052;2023-04-23T09:50:32;6.32;;;3.67;;
74309;SDS011;62722;51.142;17.052;2023-04-23T09:53:03;6.10;;;3.80;;
74309;SDS011;62722;51.142;17.052;2023-04-23T09:55:31;7.60;;;4.18;;
74309;SDS011;62722;51.142;17.052;2023-04-23T09:58:05;5.90;;;3.63;;
74309;SDS011;62722;51.142;17.052;2023-04-23T10:00:37;10.57;;;3.90;;
74309;SDS011;62722;51.142;17.052;2023-04-23T10:03:06;6.18;;;3.45;;
74309;SDS011;62722;51.142;17.052;2023-04-23T10:05:37;6.20;;;3.45;;
74309;SDS011;62722;51.142;17.052;2023-04-23T10:08:08;8.32;;;4.05;;
74309;SDS011;62722;51.142;17.052;2023-04-23T10:10:38;9.13;;;3.92;;
74309;SDS011;62722;51.142;17.052;2023-04-23T10:13:08;6.68;;;4.15;;
74309;SDS011;62722;51.142;17.052;2023-04-23T10:15:36;6.13;;;3.72;;
74309;SDS011;62722;51.142;17.052;2023-04-23T10:18:04;7.88;;;4.30;;
74309;SDS011;62722;51.142;17.052;2023-04-23T10:20:34;4.97;;;3.58;;
74309;SDS011;62722;51.142;17.052;2023-04-23T10:23:02;5.55;;;3.35;;
74309;SDS011;62722;51.142;17.052;2023-04-23T10:25:32;6.03;;;3.58;;
74309;SDS011;62722;51.142;17.052;2023-04-23T10:28:00;6.15;;;5.32;;
74309;SDS011;62722;51.142;17.052;2023-04-23T10:30:31;6.88;;;3.72;;
74309;SDS011;62722;51.142;17.052;2023-04-23T10:33:00;6.25;;;3.60;;
74309;SDS011;62722;51.142;17.052;2023-04-23T10:35:28;5.55;;;3.22;;
74309;SDS011;62722;51.142;17.052;2023-04-23T10:37:57;5.47;;;3.45;;
74309;SDS011;62722;51.142;17.052;2023-04-23T10:40:28;6.00;;;3.75;;
74309;SDS011;62722;51.142;17.052;2023-04-23T10:42:58;7.30;;;4.47;;
74309;SDS011;62722;51.142;17.052;2023-04-23T10:45:26;6.43;;;3.50;;
74309;SDS011;62722;51.142;17.052;2023-04-23T10:47:59;5.88;;;3.58;;
74309;SDS011;62722;51.142;17.052;2023-04-23T10:50:29;6.13;;;3.92;;
74309;SDS011;62722;51.142;17.052;2023-04-23T10:53:01;6.00;;;4.03;;
74309;SDS011;62722;51.142;17.052;2023-04-23T10:55:30;6.38;;;4.30;;
74309;SDS011;62722;51.142;17.052;2023-04-23T10:57:59;5.60;;;3.80;;
74309;SDS011;62722;51.142;17.052;2023-04-23T11:00:29;6.10;;;3.88;;
74309;SDS011;62722;51.142;17.052;2023-04-23T11:05:59;6.45;;;3.58;;
74309;SDS011;62722;51.142;17.052;2023-04-23T11:08:28;5.07;;;3.55;;
74309;SDS011;62722;51.142;17.052;2023-04-23T11:10:57;5.80;;;3.40;;
74309;SDS011;62722;51.142;17.052;2023-04-23T11:13:26;9.52;;;4.55;;
74309;SDS011;62722;51.142;17.052;2023-04-23T11:16:12;6.32;;;3.78;;
74309;SDS011;62722;51.142;17.052;2023-04-23T11:18:55;7.35;;;4.45;;
74309;SDS011;62722;51.142;17.052;2023-04-23T11:24:28;6.55;;;4.25;;
74309;SDS011;62722;51.142;17.052;2023-04-23T11:26:57;6.63;;;4.00;;
74309;SDS011;62722;51.142;17.052;2023-04-23T11:29:26;6.22;;;4.00;;
74309;SDS011;62722;51.142;17.052;2023-04-23T11:31:54;7.90;;;3.75;;
74309;SDS011;62722;51.142;17.052;2023-04-23T11:34:24;7.78;;;3.83;;
74309;SDS011;62722;51.142;17.052;2023-04-23T11:36:52;7.57;;;3.42;;
74309;SDS011;62722;51.142;17.052;2023-04-23T11:39:21;9.05;;;4.07;;
74309;SDS011;62722;51.142;17.052;2023-04-23T11:41:52;4.70;;;3.08;;
74309;SDS011;62722;51.142;17.052;2023-04-23T11:44:19;5.78;;;3.15;;
74309;SDS011;62722;51.142;17.052;2023-04-23T11:46:48;4.72;;;2.88;;
74309;SDS011;62722;51.142;17.052;2023-04-23T11:49:16;4.75;;;2.95;;
74309;SDS011;62722;51.142;17.052;2023-04-23T11:51:47;6.50;;;3.42;;
74309;SDS011;62722;51.142;17.052;2023-04-23T11:54:15;5.30;;;3.22;;
74309;SDS011;62722;51.142;17.052;2023-04-23T11:56:43;5.90;;;2.95;;
74309;SDS011;62722;51.142;17.052;2023-04-23T11:59:10;6.30;;;3.10;;
74309;SDS011;62722;51.142;17.052;2023-04-23T12:01:38;4.05;;;2.88;;
74309;SDS011;62722;51.142;17.052;2023-04-23T12:04:10;5.22;;;2.80;;
74309;SDS011;62722;51.142;17.052;2023-04-23T12:06:43;5.88;;;3.13;;
74309;SDS011;62722;51.142;17.052;2023-04-23T12:09:14;6.10;;;2.60;;
74309;SDS011;62722;51.142;17.052;2023-04-23T12:11:42;4.72;;;3.22;;
74309;SDS011;62722;51.142;17.052;2023-04-23T12:14:12;5.78;;;3.05;;
74309;SDS011;62722;51.142;17.052;2023-04-23T12:16:41;5.82;;;3.10;;
74309;SDS011;62722;51.142;17.052;2023-04-23T12:19:11;6.07;;;3.35;;
74309;SDS011;62722;51.142;17.052;2023-04-23T12:21:46;7.93;;;3.63;;
74309;SDS011;62722;51.142;17.052;2023-04-23T12:24:17;4.10;;;3.10;;
74309;SDS011;62722;51.142;17.052;2023-04-23T12:26:44;5.45;;;2.95;;
74309;SDS011;62722;51.142;17.052;2023-04-23T12:29:16;5.22;;;3.10;;
74309;SDS011;62722;51.142;17.052;2023-04-23T12:31:46;5.82;;;3.30;;
74309;SDS011;62722;51.142;17.052;2023-04-23T12:34:14;4.57;;;3.00;;
74309;SDS011;62722;51.142;17.052;2023-04-23T12:36:43;5.90;;;3.40;;
74309;SDS011;62722;51.142;17.052;2023-04-23T12:39:20;7.72;;;3.17;;
74309;SDS011;62722;51.142;17.052;2023-04-23T12:41:55;4.43;;;3.42;;
74309;SDS011;62722;51.142;17.052;2023-04-23T12:44:27;5.57;;;3.00;;
74309;SDS011;62722;51.142;17.052;2023-04-23T12:46:56;5.80;;;3.50;;
74309;SDS011;62722;51.142;17.052;2023-04-23T12:49:25;6.88;;;3.25;;
74309;SDS011;62722;51.142;17.052;2023-04-23T12:51:53;4.53;;;3.15;;
74309;SDS011;62722;51.142;17.052;2023-04-23T12:54:27;5.28;;;3.80;;
74309;SDS011;62722;51.142;17.052;2023-04-23T12:56:56;5.50;;;3.40;;
74309;SDS011;62722;51.142;17.052;2023-04-23T12:59:23;6.63;;;2.80;;
74309;SDS011;62722;51.142;17.052;2023-04-23T13:01:51;5.50;;;3.10;;
74309;SDS011;62722;51.142;17.052;2023-04-23T13:04:18;4.88;;;2.60;;
74309;SDS011;62722;51.142;17.052;2023-04-23T13:06:46;4.60;;;2.83;;
74309;SDS011;62722;51.142;17.052;2023-04-23T13:09:13;4.95;;;2.80;;
74309;SDS011;62722;51.142;17.052;2023-04-23T13:11:42;5.60;;;3.15;;
74309;SDS011;62722;51.142;17.052;2023-04-23T13:14:11;3.60;;;2.60;;
74309;SDS011;62722;51.142;17.052;2023-04-23T13:16:38;5.45;;;3.20;;
74309;SDS011;62722;51.142;17.052;2023-04-23T13:19:06;5.38;;;3.15;;
74309;SDS011;62722;51.142;17.052;2023-04-23T13:21:34;5.72;;;3.38;;
74309;SDS011;62722;51.142;17.052;2023-04-23T13:24:01;5.55;;;3.42;;
74309;SDS011;62722;51.142;17.052;2023-04-23T13:26:30;4.80;;;2.83;;
74309;SDS011;62722;51.142;17.052;2023-04-23T13:28:59;4.75;;;2.53;;
74309;SDS011;62722;51.142;17.052;2023-04-23T13:31:27;4.93;;;2.63;;
74309;SDS011;62722;51.142;17.052;2023-04-23T13:33:55;3.00;;;2.00;;
74309;SDS011;62722;51.142;17.052;2023-04-23T13:36:23;4.18;;;2.25;;
74309;SDS011;62722;51.142;17.052;2023-04-23T13:38:51;5.53;;;2.20;;
74309;SDS011;62722;51.142;17.052;2023-04-23T13:41:18;3.38;;;2.22;;
74309;SDS011;62722;51.142;17.052;2023-04-23T13:43:47;3.10;;;2.03;;
74309;SDS011;62722;51.142;17.052;2023-04-23T13:46:16;3.75;;;1.83;;
74309;SDS011;62722;51.142;17.052;2023-04-23T13:48:44;4.03;;;2.08;;
74309;SDS011;62722;51.142;17.052;2023-04-23T13:51:11;4.25;;;2.20;;
74309;SDS011;62722;51.142;17.052;2023-04-23T13:53:39;3.95;;;1.80;;
74309;SDS011;62722;51.142;17.052;2023-04-23T13:56:08;3.95;;;1.90;;
74309;SDS011;62722;51.142;17.052;2023-04-23T13:58:35;3.03;;;1.80;;
74309;SDS011;62722;51.142;17.052;2023-04-23T14:01:04;5.30;;;2.72;;
74309;SDS011;62722;51.142;17.052;2023-04-23T14:03:33;4.22;;;2.58;;
74309;SDS011;62722;51.142;17.052;2023-04-23T14:06:00;5.70;;;2.97;;
74309;SDS011;62722;51.142;17.052;2023-04-23T14:08:27;4.78;;;2.67;;
74309;SDS011;62722;51.142;17.052;2023-04-23T14:10:55;3.60;;;2.20;;
74309;SDS011;62722;51.142;17.052;2023-04-23T14:13:23;5.80;;;3.13;;
74309;SDS011;62722;51.142;17.052;2023-04-23T14:15:50;4.32;;;2.58;;
74309;SDS011;62722;51.142;17.052;2023-04-23T14:18:18;3.70;;;2.75;;
74309;SDS011;62722;51.142;17.052;2023-04-23T14:20:47;4.55;;;2.85;;
74309;SDS011;62722;51.142;17.052;2023-04-23T14:23:41;5.47;;;2.60;;
74309;SDS011;62722;51.142;17.052;2023-04-23T14:26:19;5.32;;;2.30;;
74309;SDS011;62722;51.142;17.052;2023-04-23T14:28:49;4.93;;;2.58;;
74309;SDS011;62722;51.142;17.052;2023-04-23T14:31:21;6.05;;;2.83;;
74309;SDS011;62722;51.142;17.052;2023-04-23T14:33:48;5.28;;;3.03;;